Latest Weather Observations for Gympie

IDQ60901

Issued at 6:51 am EST Wednesday 23 January 2019 (issued every 10 minutes, with the page automatically refreshed every 10 minutes)

About weather observations | Map of Brisbane area stations | Latest observations for Brisbane area | Other Formats
Station Details ID: 040093 Name: GYMPIE Lat: -26.18 Lon: 152.64 Height: 64.5 m
Data from the previous 72 hours. | See also: Recent months at Gympie
Date/Time
EST
Temp
°C
App
Temp
°C
Dew
Point
°C
Rel
Hum
%
Delta-T
°C
Wind Press
QNH
hPa
Press
MSL
hPa
Rain since
9am
mm
Dir  Spd
km/h
Gust
km/h
Spd
kts
Gust
kts
23/06:30am 20.9 25.0 20.7 99 0.1 CALM 0 0 0 0 1014.8 1014.4 0.0
23/06:00am 20.2 23.9 20.0 99 0.1 CALM 0 0 0 0 1014.6 1014.2 0.0
23/05:30am 19.7 23.1 19.4 98 0.2 CALM 0 0 0 0 1014.1 1013.7 0.0
23/05:00am 19.4 22.6 18.9 97 0.3 CALM 0 0 0 0 1013.9 1013.5 0.0
23/04:30am 19.6 23.0 19.3 98 0.2 CALM 0 0 0 0 1013.7 1013.3 0.0
23/04:00am 19.4 22.6 18.9 97 0.3 CALM 0 0 0 0 1013.6 1013.2 0.0
23/03:30am 19.7 23.1 19.4 98 0.2 CALM 0 0 0 0 1013.7 1013.3 0.0
23/03:00am 19.2 22.1 18.2 94 0.6 CALM 0 0 0 0 1013.4 1013.0 0.0
23/02:30am 20.1 23.5 19.4 96 0.4 CALM 0 0 0 0 1013.8 1013.4 0.0
23/02:00am 20.1 23.5 19.3 95 0.5 CALM 0 0 0 0 1014.1 1013.7 0.0
23/01:30am 20.8 24.6 20.1 96 0.4 CALM 0 0 0 0 1014.5 1014.1 0.0
23/01:00am 20.9 24.7 20.2 96 0.4 CALM 0 0 0 0 1015.1 1014.7 0.0
23/12:30am 20.9 24.6 19.9 94 0.6 CALM 0 0 0 0 1015.5 1015.1 0.0
23/12:00am 21.6 25.4 20.1 91 1.0 CALM 0 0 0 0 1016.1 1015.8 0.0
 
Date/Time
EST
Temp
°C
App
Temp
°C
Dew
Point
°C
Rel
Hum
%
Delta-T
°C
Wind Press
QNH
hPa
Press
MSL
hPa
Rain since
9am
mm
Dir  Spd
km/h
Gust
km/h
Spd
kts
Gust
kts
22/11:30pm 22.0 26.0 20.5 91 1.0 CALM 0 0 0 0 1016.7 1016.4 0.0
22/11:00pm 22.4 26.6 20.9 91 1.0 CALM 0 0 0 0 1016.9 1016.6 0.0
22/10:30pm 21.9 25.7 20.2 90 1.1 CALM 0 0 0 0 1017.1 1016.8 0.0
22/10:00pm 22.3 26.2 20.4 89 1.2 CALM 0 0 0 0 1017.3 1017.0 0.0
22/09:30pm 22.8 26.6 20.1 85 1.7 CALM 0 2 0 1 1017.3 1017.0 0.0
22/09:00pm 24.1 27.4 20.8 82 2.2 SE 4 6 2 3 1016.9 1016.6 0.0
22/08:30pm 24.1 27.7 20.6 81 2.3 SE 2 4 1 2 1016.8 1016.5 0.0
22/08:00pm 25.0 28.3 20.7 77 2.8 ESE 4 9 2 5 1016.7 1016.4 0.0
22/07:30pm 25.6 28.4 20.4 73 3.4 ESE 6 9 3 5 1016.4 1016.1 0.0
22/07:00pm 26.4 28.9 20.3 69 4.0 ESE 7 17 4 9 1016.2 1015.9 0.0
22/06:30pm 27.3 29.3 19.9 64 4.8 E 9 17 5 9 1015.8 1015.4 0.0
22/06:00pm 28.1 28.8 19.6 60 5.5 E 15 22 8 12 1015.3 1014.9 0.0
22/05:30pm 28.8 29.5 19.7 58 6.0 E 15 24 8 13 1014.7 1014.3 0.0
22/05:00pm 29.2 30.6 19.5 56 6.3 E 11 19 6 10 1014.4 1014.0 0.0
22/04:30pm 29.2 29.9 18.9 53 6.7 E 13 20 7 11 1014.4 1014.0 0.0
22/04:00pm 31.1 32.1 19.4 49 7.7 E 13 26 7 14 1014.2 1013.8 0.0
22/03:30pm 31.3 32.4 19.6 49 7.7 E 13 20 7 11 1014.3 1013.9 0.0
22/03:00pm 31.9 33.5 19.9 49 7.9 E 11 22 6 12 1014.4 1014.0 0.0
22/02:30pm 32.2 32.9 18.8 45 8.7 E 13 24 7 13 1014.6 1014.2 0.0
22/02:00pm 32.5 33.3 19.0 44 8.8 ESE 13 26 7 14 1014.8 1014.4 0.0
22/01:30pm 31.9 33.0 18.8 45 8.5 ENE 11 20 6 11 1015.1 1014.7 0.0
22/01:00pm 32.5 33.8 19.4 46 8.6 ESE 11 22 6 12 1015.4 1015.0 0.0
22/12:30pm 32.5 33.5 19.4 46 8.6 E 13 28 7 15 1015.8 1015.4 0.0
22/12:00pm 31.3 32.5 19.0 48 8.0 E 11 22 6 12 1016.1 1015.8 0.0
22/11:30am 31.6 33.0 19.6 49 7.9 E 11 24 6 13 1016.4 1016.1 0.0
22/11:00am 30.9 32.4 18.9 48 7.8 E 9 22 5 12 1016.8 1016.5 0.0
22/10:30am 30.5 31.6 18.9 50 7.5 E 11 20 6 11 1017.0 1016.7 0.0
22/10:00am 29.7 31.9 19.7 55 6.6 ESE 7 20 4 11 1016.9 1016.6 0.0
22/09:30am 29.6 32.8 20.5 58 6.0 SSE 4 11 2 6 1016.9 1016.6 0.0
22/09:00am 27.4 29.8 20.0 64 4.8 SSE 7 15 4 8 1017.0 1016.7 0.0
22/08:30am 27.1 29.9 20.4 66 4.4 SSE 6 13 3 7 1017.2 1016.9 0.0
22/08:00am 26.8 29.5 20.6 69 4.1 SE 7 13 4 7 1017.1 1016.8 0.0
22/07:30am 25.5 28.7 21.2 77 2.8 S 6 9 3 5 1017.1 1016.8 0.0
22/07:00am 23.6 27.7 20.7 84 1.9 CALM 0 0 0 0 1017.0 1016.7 0.0
22/06:30am 21.4 25.2 20.2 93 0.8 CALM 0 0 0 0 1016.8 1016.5 0.0
22/06:00am 20.1 23.6 19.6 97 0.3 CALM 0 0 0 0 1016.7 1016.4 0.0
22/05:30am 19.7 23.0 19.0 96 0.4 CALM 0 0 0 0 1016.4 1016.1 0.0
22/05:00am 19.6 22.8 18.8 95 0.5 CALM 0 0 0 0 1016.2 1015.9 0.0
22/04:30am 20.0 23.4 19.3 96 0.4 CALM 0 0 0 0 1016.2 1015.9 0.0
22/04:00am 20.2 23.7 19.5 96 0.4 CALM 0 0 0 0 1015.9 1015.5 0.0
22/03:30am 20.5 24.1 19.8 96 0.4 CALM 0 0 0 0 1015.9 1015.5 0.0
22/03:00am 21.2 25.0 20.2 94 0.6 CALM 0 0 0 0 1015.9 1015.5 0.0
22/02:30am 21.4 25.2 20.2 93 0.8 CALM 0 0 0 0 1016.2 1015.9 0.0
22/02:00am 21.6 25.5 20.4 93 0.8 CALM 0 0 0 0 1016.5 1016.2 0.0
22/01:30am 22.0 26.0 20.6 92 0.9 CALM 0 0 0 0 1016.9 1016.6 0.0
22/01:00am 21.6 25.4 20.2 92 0.9 CALM 0 0 0 0 1017.1 1016.8 0.0
22/12:30am 21.6 25.4 20.1 91 1.0 CALM 0 0 0 0 1017.4 1017.1 0.0
22/12:00am 22.2 26.3 20.7 91 1.0 CALM 0 0 0 0 1017.6 1017.3 0.0
 
Date/Time
EST
Temp
°C
App
Temp
°C
Dew
Point
°C
Rel
Hum
%
Delta-T
°C
Wind Press
QNH
hPa
Press
MSL
hPa
Rain since
9am
mm
Dir  Spd
km/h
Gust
km/h
Spd
kts
Gust
kts
21/11:30pm 22.1 26.0 20.4 90 1.1 CALM 0 0 0 0 1017.8 1017.5 0.0
21/11:00pm 22.3 26.2 20.4 89 1.2 CALM 0 0 0 0 1018.0 1017.7 0.0
21/10:30pm 22.4 25.9 20.3 88 1.4 S 2 4 1 2 1018.2 1017.9 0.0
21/10:00pm 22.7 26.6 20.4 87 1.5 CALM 0 0 0 0 1018.4 1018.1 0.0
21/09:30pm 22.8 26.8 20.5 87 1.5 CALM 0 0 0 0 1018.3 1018.0 0.0
21/09:00pm 23.2 27.2 20.5 85 1.8 CALM 0 0 0 0 1018.1 1017.8 0.0
21/08:30pm 23.7 27.3 20.6 83 2.0 SE 2 6 1 3 1017.8 1017.5 0.0
21/08:00pm 23.9 27.0 20.2 80 2.4 SE 4 6 2 3 1017.5 1017.2 0.0
21/07:30pm 24.5 27.5 20.0 76 2.9 SSE 4 9 2 5 1017.1 1016.8 0.0
21/07:00pm 25.5 28.0 20.3 73 3.4 SE 7 15 4 8 1016.9 1016.6 0.0
21/06:30pm 26.7 28.4 20.1 67 4.3 E 11 20 6 11 1016.4 1016.1 0.0
21/06:00pm 27.8 28.3 19.3 60 5.5 E 15 24 8 13 1015.9 1015.5 0.0
21/05:30pm 29.2 31.4 20.4 59 5.8 ESE 9 20 5 11 1015.5 1015.1 0.0
21/05:00pm 29.8 31.3 19.8 55 6.6 ESE 11 24 6 13 1015.1 1014.7 0.0
21/04:30pm 30.5 31.1 19.5 51 7.2 ESE 15 28 8 15 1014.9 1014.5 0.0
21/04:00pm 30.8 31.9 20.4 54 6.9 ESE 15 30 8 16 1014.7 1014.3 0.0
21/03:30pm 29.9 29.5 19.0 52 7.1 ESE 19 32 10 17 1014.9 1014.5 0.0
21/03:00pm 31.1 31.8 18.8 48 8.0 E 13 24 7 13 1014.9 1014.5 0.0
21/02:30pm 31.3 31.9 18.6 46 8.2 ESE 13 22 7 12 1015.1 1014.7 0.0
21/02:00pm 32.0 33.1 18.9 45 8.5 ESE 11 20 6 11 1015.3 1014.9 0.0
21/01:30pm 30.3 30.9 18.7 50 7.5 E 13 24 7 13 1015.4 1015.0 0.0
21/01:00pm 30.7 31.2 18.4 47 7.9 ESE 13 24 7 13 1015.6 1015.2 0.0
21/12:30pm 32.0 33.3 19.3 47 8.3 ESE 11 26 6 14 1015.7 1015.3 0.0
21/12:00pm 31.2 32.1 19.2 48 7.8 E 13 26 7 14 1015.9 1015.5 0.0
21/11:30am 31.6 33.8 19.6 49 7.9 ESE 7 22 4 12 1016.3 1016.0 0.0
21/11:00am 31.1 32.8 19.4 49 7.7 ESE 9 17 5 9 1016.5 1016.2 0.0
21/10:30am 29.0 30.5 19.0 54 6.5 SE 9 20 5 11 1016.6 1016.3 0.0
21/10:00am 28.6 30.0 19.5 58 5.9 SE 11 20 6 11 1016.8 1016.5 0.0
21/09:30am 28.4 30.9 20.2 61 5.4 SE 7 13 4 7 1016.8 1016.5 0.0
21/09:00am 28.1 30.2 20.1 62 5.2 SSE 9 17 5 9 1017.0 1016.7 0.0
21/08:30am 27.8 29.5 20.1 63 5.1 SE 11 19 6 10 1017.1 1016.8 0.0
21/08:00am 26.4 28.9 20.3 69 4.0 SE 7 17 4 9 1017.2 1016.9 0.0
21/07:30am 25.3 28.2 21.0 77 2.8 SE 7 13 4 7 1017.3 1017.0 0.0
21/07:00am 22.4 26.3 20.3 88 1.4 CALM 0 4 0 2 1017.4 1017.1 0.0
21/06:30am 20.4 24.0 19.7 96 0.4 CALM 0 0 0 0 1017.2 1016.9 0.0
21/06:00am 19.9 23.4 19.6 98 0.2 CALM 0 0 0 0 1017.0 1016.7 0.0
21/05:30am 19.4 22.6 18.9 97 0.3 CALM 0 0 0 0 1016.5 1016.2 0.0
21/05:00am 19.2 22.3 18.7 97 0.3 CALM 0 0 0 0 1016.5 1016.2 0.0
21/04:30am 19.2 22.3 18.7 97 0.3 CALM 0 0 0 0 1016.3 1016.0 0.0
21/04:00am 19.5 22.8 19.0 97 0.3 CALM 0 2 0 1 1016.0 1015.7 0.0
21/03:30am 19.7 23.0 19.2 97 0.3 CALM 0 0 0 0 1016.2 1015.9 0.0
21/03:00am 19.7 23.0 19.0 96 0.4 CALM 0 0 0 0 1016.1 1015.8 0.0
21/02:30am 19.8 23.1 19.0 95 0.5 CALM 0 0 0 0 1016.3 1016.0 0.0
21/02:00am 19.8 23.1 19.0 95 0.5 CALM 0 0 0 0 1016.4 1016.1 0.0
21/01:30am 20.1 23.5 19.3 95 0.5 CALM 0 0 0 0 1016.4 1016.1 0.0
21/01:00am 20.3 23.7 19.3 94 0.6 CALM 0 0 0 0 1016.7 1016.4 0.0
21/12:30am 20.8 24.4 19.8 94 0.6 CALM 0 0 0 0 1016.9 1016.6 0.0
21/12:00am 20.7 24.3 19.7 94 0.6 CALM 0 0 0 0 1017.2 1016.9 0.0
 
Date/Time
EST
Temp
°C
App
Temp
°C
Dew
Point
°C
Rel
Hum
%
Delta-T
°C
Wind Press
QNH
hPa
Press
MSL
hPa
Rain since
9am
mm
Dir  Spd
km/h
Gust
km/h
Spd
kts
Gust
kts
20/11:30pm 20.9 24.5 19.7 93 0.8 CALM 0 0 0 0 1017.5 1017.2 0.0
20/11:00pm 21.0 24.5 19.5 91 1.0 CALM 0 0 0 0 1017.9 1017.6 0.0
20/10:30pm 21.7 25.5 20.2 91 1.0 CALM 0 0 0 0 1018.3 1018.0 0.0
20/10:00pm 22.2 25.9 19.9 87 1.5 CALM 0 0 0 0 1018.4 1018.1 0.0
20/09:30pm 22.8 26.7 20.3 86 1.6 CALM 0 0 0 0 1018.4 1018.1 0.0
20/09:00pm 23.2 26.9 20.0 82 2.1 CALM 0 0 0 0 1018.2 1017.9 0.0
20/08:30pm 24.2 27.3 20.3 79 2.5 ESE 4 6 2 3 1017.8 1017.5 0.0
20/08:00pm 24.5 27.2 20.2 77 2.8 SE 6 7 3 4 1017.7 1017.4 0.0
20/07:30pm 25.4 28.2 20.4 74 3.3 ESE 6 11 3 6 1017.6 1017.3 0.0
20/07:00pm 25.8 26.9 19.7 69 3.9 ESE 13 20 7 11 1017.1 1016.8 0.0
20/06:30pm 26.8 28.7 19.7 65 4.6 ESE 9 15 5 8 1016.8 1016.5 0.0
20/06:00pm 28.0 29.3 19.2 58 5.7 E 11 20 6 11 1016.2 1015.9 0.0
20/05:30pm 28.9 30.2 19.2 55 6.3 E 11 22 6 12 1015.8 1015.4 0.0
20/05:00pm 29.5 30.6 18.9 53 6.9 E 11 20 6 11 1015.6 1015.2 0.0
20/04:30pm 29.8 29.9 18.3 50 7.4 E 15 28 8 15 1015.5 1015.1 0.0
20/04:00pm 30.3 30.4 18.4 49 7.7 ESE 15 24 8 13 1015.7 1015.3 0.0
20/03:30pm 30.6 31.1 18.3 47 7.9 E 13 28 7 15 1015.7 1015.3 0.0
20/03:00pm 31.4 32.6 19.1 48 8.0 ESE 11 26 6 14 1016.0 1015.7 0.0
20/02:30pm 31.6 32.5 19.2 47 8.1 E 13 24 7 13 1016.1 1015.8 0.0
20/02:00pm 31.7 32.5 19.0 47 8.3 ESE 13 28 7 15 1016.3 1016.0 0.0
20/01:30pm 32.0 33.5 18.9 45 8.6 ESE 9 19 5 10 1016.4 1016.1 0.0
20/01:00pm 31.5 31.9 18.1 44 8.6 ESE 13 22 7 12 1016.6 1016.3 0.0
20/12:30pm 32.1 32.9 19.0 45 8.6 ESE 13 24 7 13 1017.0 1016.7 0.0
20/12:00pm 31.5 33.3 19.5 49 7.9 SE 9 17 5 9 1017.5 1017.2 0.0
20/11:30am 29.9 30.0 18.3 49 7.5 ESE 15 24 8 13 1017.9 1017.6 0.0
20/11:00am 29.3 30.9 19.9 57 6.2 SE 11 20 6 11 1018.2 1017.9 0.0
20/10:30am 28.3 29.8 19.8 60 5.6 SE 11 17 6 9 1018.6 1018.3 0.0
20/10:00am 30.0 31.5 20.5 56 6.3 SSE 13 22 7 12 1018.4 1018.1 0.0
20/09:30am 27.9 30.0 20.2 63 5.1 SE 9 20 5 11 1018.6 1018.3 0.0
20/09:00am 27.4 29.8 20.0 64 4.8 SE 7 13 4 7 1018.6 1018.3 0.0
20/08:30am 26.9 29.4 20.3 67 4.3 SSE 7 15 4 8 1018.7 1018.4 0.0
20/08:00am 26.3 29.1 20.4 70 3.9 SSE 6 13 3 7 1018.5 1018.2 0.0
20/07:30am 23.9 27.3 20.2 80 2.4 ESE 2 4 1 2 1018.3 1018.0 0.0
20/07:00am 21.6 25.4 20.1 91 1.0 CALM 0 0 0 0 1018.1 1017.8 0.0

Latest Capital City Observations: Canberra | Sydney | Melbourne | Brisbane | Adelaide | Perth | Hobart | Darwin

Other Formats:

Comma delimited format used in spreadsheet applications
http://www.bom.gov.au/fwo/IDQ60901/IDQ60901.94566.axf

JavaScript Object Notation format (JSON) in row-major order
http://www.bom.gov.au/fwo/IDQ60901/IDQ60901.94566.json